Time;durP1;ratioP1;P1;durP2;ratioP2;P2;SDS_P1;SDS_P2;PMS_P1;PMS_P2;Temp;Humidity;BMP_temperature;BMP_pressure;BME280_temperature;BME280_humidity;BME280_pressure;Samples;Min_cycle;Max_cycle;Signal;HPM_P1;HPM_P2
2023/04/08 00:01:40;;;;;;;;;;;4.37;-3.27;;;;;;2673143;76;20433;-91
2023/04/08 00:05:08;;;;;;;;;;;4.37;-3.25;;;;;;2673295;76;20461;-90
2023/04/08 00:08:36;;;;;;;;;;;4.39;-2.95;;;;;;2673013;76;20454;-90
2023/04/08 00:12:04;;;;;;;;;;;4.45;-2.68;;;;;;2674501;76;20412;-90
2023/04/08 00:15:32;;;;;;;;;;;4.48;-1.97;;;;;;2674073;76;20329;-90
2023/04/08 00:19:01;;;;;;;;;;;4.58;-1.35;;;;;;2672705;76;20420;-91
2023/04/08 00:22:29;;;;;;;;;;;4.63;-1.33;;;;;;2672540;76;20444;-90
2023/04/08 00:26:00;;;;;;;;;;;4.63;-1.18;;;;;;2672908;76;20429;-90
2023/04/08 00:29:28;;;;;;;;;;;4.67;-0.42;;;;;;2672797;76;20419;-90
2023/04/08 00:32:56;;;;;;;;;;;4.67;-0.27;;;;;;2673360;76;20322;-91
2023/04/08 00:36:26;;;;;;;;;;;4.67;-0.09;;;;;;2673055;76;20412;-90
2023/04/08 00:39:54;;;;;;;;;;;4.66;0.66;;;;;;2672743;76;20336;-91
2023/04/08 00:43:22;;;;;;;;;;;4.71;0.65;;;;;;2672925;76;20458;-90
2023/04/08 00:46:50;;;;;;;;;;;4.69;1.04;;;;;;2673337;76;20436;-90
2023/04/08 00:50:19;;;;;;;;;;;4.68;1.12;;;;;;2673094;76;20348;-90
2023/04/08 00:53:47;;;;;;;;;;;4.67;1.59;;;;;;2672821;76;20435;-89
2023/04/08 00:57:15;;;;;;;;;;;4.67;1.80;;;;;;2672814;76;20316;-89
2023/04/08 01:00:43;;;;;;;;;;;4.72;2.32;;;;;;2672872;76;20448;-90
2023/04/08 01:04:11;;;;;;;;;;;4.74;2.61;;;;;;2672704;76;20329;-90
2023/04/08 01:07:39;;;;;;;;;;;4.71;3.03;;;;;;2672973;76;20449;-90
2023/04/08 01:11:07;;;;;;;;;;;4.72;3.57;;;;;;2672798;76;20428;-91
2023/04/08 01:14:35;;;;;;;;;;;4.66;4.41;;;;;;2672704;76;20349;-90
2023/04/08 01:18:03;;;;;;;;;;;4.72;4.67;;;;;;2672925;76;20338;-90
2023/04/08 01:21:32;;;;;;;;;;;4.71;4.77;;;;;;2672408;76;20353;-90
2023/04/08 01:25:00;;;;;;;;;;;4.72;5.18;;;;;;2672726;76;20437;-90
2023/04/08 01:28:28;;;;;;;;;;;4.71;6.45;;;;;;2672637;76;20346;-90
2023/04/08 01:31:56;;;;;;;;;;;4.75;6.44;;;;;;2672104;76;20301;-91
2023/04/08 01:35:24;;;;;;;;;;;4.74;6.25;;;;;;2672817;76;20464;-90
2023/04/08 01:38:52;;;;;;;;;;;4.77;6.47;;;;;;2673179;76;20418;-90
2023/04/08 01:42:20;;;;;;;;;;;4.73;6.86;;;;;;2672974;76;20459;-90
2023/04/08 01:45:48;;;;;;;;;;;4.81;7.49;;;;;;2673108;76;20440;-89
2023/04/08 01:49:16;;;;;;;;;;;4.80;7.93;;;;;;2672729;76;20681;-90
2023/04/08 01:52:44;;;;;;;;;;;4.79;8.32;;;;;;2673099;76;20786;-90
2023/04/08 01:56:12;;;;;;;;;;;4.87;7.89;;;;;;2673203;76;20813;-90
2023/04/08 01:59:40;;;;;;;;;;;4.86;8.55;;;;;;2672248;76;20407;-90
2023/04/08 02:03:09;;;;;;;;;;;4.94;8.53;;;;;;2671788;76;20423;-90
2023/04/08 02:06:37;;;;;;;;;;;4.97;8.33;;;;;;2672283;76;20459;-90
2023/04/08 02:10:05;;;;;;;;;;;4.98;8.92;;;;;;2672495;76;20438;-90
2023/04/08 02:13:33;;;;;;;;;;;4.98;8.71;;;;;;2673206;76;20461;-90
2023/04/08 02:17:01;;;;;;;;;;;5.02;8.88;;;;;;2672450;76;20411;-91
2023/04/08 02:20:29;;;;;;;;;;;5.07;8.89;;;;;;2672464;76;20466;-91
2023/04/08 02:23:58;;;;;;;;;;;5.04;9.46;;;;;;2672634;76;20457;-91
2023/04/08 02:27:26;;;;;;;;;;;4.98;10.86;;;;;;2673043;76;20331;-90
2023/04/08 02:30:54;;;;;;;;;;;5.13;10.40;;;;;;2672388;76;20431;-91
2023/04/08 02:34:22;;;;;;;;;;;5.19;10.20;;;;;;2672809;76;20341;-91
2023/04/08 02:37:51;;;;;;;;;;;5.17;10.60;;;;;;2672964;76;20459;-90
2023/04/08 02:41:20;;;;;;;;;;;5.26;10.70;;;;;;2673088;76;20475;-89
2023/04/08 02:44:48;;;;;;;;;;;5.33;10.55;;;;;;2672917;76;20440;-91
2023/04/08 02:48:16;;;;;;;;;;;5.35;10.75;;;;;;2672625;76;20453;-89
2023/04/08 02:51:44;;;;;;;;;;;5.39;11.52;;;;;;2673055;76;20454;-91
2023/04/08 02:55:12;;;;;;;;;;;5.45;11.69;;;;;;2673313;76;20454;-89
2023/04/08 02:58:40;;;;;;;;;;;5.48;11.86;;;;;;2672499;76;20437;-91
2023/04/08 03:02:08;;;;;;;;;;;5.50;12.51;;;;;;2671464;76;20436;-90
2023/04/08 03:05:36;;;;;;;;;;;5.47;13.30;;;;;;2672775;76;20455;-90
2023/04/08 03:12:43;;;;;;;;;;;5.45;15.36;;;;;;2672437;76;20880;-91
2023/04/08 03:16:22;;;;;;;;;;;;;;;;;;;;;
2023/04/08 03:19:42;;;;;;;;;;;5.55;15.41;;;;;;2671920;76;20344;-91
2023/04/08 03:23:10;;;;;;;;;;;5.53;15.75;;;;;;2672564;76;20308;-91
2023/04/08 03:26:42;;;;;;;;;;;5.64;15.39;;;;;;2672702;76;20424;-91
2023/04/08 03:30:10;;;;;;;;;;;5.50;16.23;;;;;;2672263;76;20470;-90
2023/04/08 03:33:41;;;;;;;;;;;5.47;16.39;;;;;;2671629;76;20478;-91
2023/04/08 03:37:09;;;;;;;;;;;5.54;16.19;;;;;;2672432;76;20365;-91
2023/04/08 03:40:42;;;;;;;;;;;5.60;15.91;;;;;;2672806;76;20469;-91
2023/04/08 03:44:19;;;;;;;;;;;5.60;15.78;;;;;;2671882;76;20436;-90
2023/04/08 03:47:44;;;;;;;;;;;5.56;16.56;;;;;;2672358;76;20483;-91
2023/04/08 03:51:14;;;;;;;;;;;5.48;16.96;;;;;;2672561;76;20442;-91
2023/04/08 03:54:44;;;;;;;;;;;5.61;16.67;;;;;;2672962;76;20415;-92
2023/04/08 03:58:13;;;;;;;;;;;5.54;17.23;;;;;;2672323;76;20423;-91
2023/04/08 04:01:41;;;;;;;;;;;5.57;17.25;;;;;;2672065;76;20463;-91
2023/04/08 04:05:10;;;;;;;;;;;5.60;17.32;;;;;;2672648;76;20532;-90
2023/04/08 04:08:38;;;;;;;;;;;5.50;18.12;;;;;;2672344;76;20447;-91
2023/04/08 04:12:06;;;;;;;;;;;5.65;18.28;;;;;;2672258;76;20470;-91
2023/04/08 04:15:34;;;;;;;;;;;5.70;17.77;;;;;;2672602;76;20338;-91
2023/04/08 04:19:11;;;;;;;;;;;5.81;17.44;;;;;;2672315;76;20423;-90
2023/04/08 04:22:35;;;;;;;;;;;5.70;17.85;;;;;;2672625;76;20444;-90
2023/04/08 04:26:10;;;;;;;;;;;5.67;18.05;;;;;;2672733;76;20461;-91
2023/04/08 04:29:42;;;;;;;;;;;5.67;18.38;;;;;;2671842;76;20463;-91
2023/04/08 04:33:12;;;;;;;;;;;5.61;18.76;;;;;;2671788;76;20477;-91
2023/04/08 04:36:37;;;;;;;;;;;5.75;18.26;;;;;;2671973;76;20931;-91
2023/04/08 04:40:05;;;;;;;;;;;5.80;17.85;;;;;;2672372;76;20857;-91
2023/04/08 04:43:33;;;;;;;;;;;5.85;17.40;;;;;;2671909;76;20460;-91
2023/04/08 04:47:06;;;;;;;;;;;5.75;17.52;;;;;;2672462;76;20446;-91
2023/04/08 04:50:38;;;;;;;;;;;5.70;17.74;;;;;;2672266;76;20821;-91
2023/04/08 04:54:06;;;;;;;;;;;5.87;17.90;;;;;;2672923;76;20342;-91
2023/04/08 04:57:35;;;;;;;;;;;5.96;17.62;;;;;;2672392;76;20849;-91
2023/04/08 05:01:03;;;;;;;;;;;6.02;17.67;;;;;;2672110;76;20480;-91
2023/04/08 05:04:34;;;;;;;;;;;6.16;17.38;;;;;;2672043;76;20309;-91
2023/04/08 05:08:06;;;;;;;;;;;6.25;17.34;;;;;;2671627;76;20448;-91
2023/04/08 05:11:34;;;;;;;;;;;6.44;17.12;;;;;;2672201;76;20414;-91
2023/04/08 05:15:07;;;;;;;;;;;6.51;17.00;;;;;;2672678;76;20814;-92
2023/04/08 05:18:41;;;;;;;;;;;6.55;17.29;;;;;;2672588;76;20903;-91
2023/04/08 05:25:47;;;;;;;;;;;6.71;17.56;;;;;;2669924;76;20993;-91
2023/04/08 05:29:17;;;;;;;;;;;6.87;17.15;;;;;;2671604;76;21019;-91
2023/04/08 05:32:53;;;;;;;;;;;6.82;16.86;;;;;;2671854;76;20892;-91
2023/04/08 05:36:28;;;;;;;;;;;6.99;17.25;;;;;;2671466;76;20410;-91
2023/04/08 05:39:56;;;;;;;;;;;7.02;17.19;;;;;;2671552;76;21062;-92
2023/04/08 05:43:33;;;;;;;;;;;7.19;17.01;;;;;;2671731;76;20475;-91
2023/04/08 05:47:01;;;;;;;;;;;6.97;17.63;;;;;;2671800;76;20928;-91
2023/04/08 05:50:29;;;;;;;;;;;6.94;17.93;;;;;;2672526;76;20441;-89
2023/04/08 05:53:58;;;;;;;;;;;7.16;17.88;;;;;;2671425;76;20440;-91
2023/04/08 05:57:29;;;;;;;;;;;7.03;17.81;;;;;;2672125;76;20452;-91
2023/04/08 06:00:57;;;;;;;;;;;7.16;18.06;;;;;;2671904;76;20473;-91
2023/04/08 06:04:31;;;;;;;;;;;7.23;18.03;;;;;;2672007;76;20546;-91
2023/04/08 06:08:08;;;;;;;;;;;7.08;18.17;;;;;;2672394;76;20444;-91
2023/04/08 06:11:30;;;;;;;;;;;7.08;18.20;;;;;;2671675;76;20483;-91
2023/04/08 06:15:08;;;;;;;;;;;7.20;18.41;;;;;;2671640;76;20915;-91
2023/04/08 06:18:36;;;;;;;;;;;7.26;18.41;;;;;;2671863;76;20483;-91
2023/04/08 06:22:09;;;;;;;;;;;7.17;18.39;;;;;;2671782;76;20899;-91
2023/04/08 06:25:37;;;;;;;;;;;7.35;18.44;;;;;;2671138;76;20919;-91
2023/04/08 06:29:07;;;;;;;;;;;7.43;18.13;;;;;;2671814;76;20445;-90
2023/04/08 06:32:36;;;;;;;;;;;7.72;17.72;;;;;;2671510;76;20342;-91
2023/04/08 06:36:04;;;;;;;;;;;7.56;17.65;;;;;;2672283;76;20350;-90
2023/04/08 06:39:33;;;;;;;;;;;7.55;17.46;;;;;;2672455;76;20461;-91
2023/04/08 06:43:05;;;;;;;;;;;7.56;17.75;;;;;;2671775;76;20806;-91
2023/04/08 06:46:34;;;;;;;;;;;7.61;17.48;;;;;;2671209;76;20823;-91
2023/04/08 06:50:03;;;;;;;;;;;7.60;17.67;;;;;;2671822;76;20328;-91
2023/04/08 06:53:49;;;;;;;;;;;7.74;17.35;;;;;;2672733;76;20842;-91
2023/04/08 06:57:18;;;;;;;;;;;7.91;16.72;;;;;;2671531;76;20471;-91
2023/04/08 07:00:51;;;;;;;;;;;7.93;16.13;;;;;;2672246;76;20441;-91
2023/04/08 07:04:16;;;;;;;;;;;7.76;15.42;;;;;;2672312;76;20426;-91
2023/04/08 07:07:45;;;;;;;;;;;8.14;14.94;;;;;;2672743;76;20464;-91
2023/04/08 07:11:16;;;;;;;;;;;8.20;13.87;;;;;;2670507;76;20310;-91
2023/04/08 07:14:44;;;;;;;;;;;8.32;13.65;;;;;;2671775;76;20351;-91
2023/04/08 07:18:14;;;;;;;;;;;8.33;13.11;;;;;;2671758;76;20833;-91
2023/04/08 07:21:42;;;;;;;;;;;8.86;12.68;;;;;;2672371;76;20456;-91
2023/04/08 07:25:18;;;;;;;;;;;8.93;11.32;;;;;;2671801;76;20353;-91
2023/04/08 07:28:48;;;;;;;;;;;8.66;10.33;;;;;;2671904;76;20777;-90
2023/04/08 07:32:16;;;;;;;;;;;9.03;10.94;;;;;;2671311;76;20461;-91
2023/04/08 07:36:22;;;;;;;;;;;;;;;;;;;;;
2023/04/08 07:40:03;;;;;;;;;;;9.06;7.58;;;;;;2671447;76;20345;-91
2023/04/08 07:43:31;;;;;;;;;;;9.24;6.95;;;;;;2675530;76;20354;-91
2023/04/08 07:47:05;;;;;;;;;;;9.66;6.72;;;;;;2672231;76;20412;-91
2023/04/08 07:51:13;;;;;;;;;;;9.81;5.43;;;;;;2669457;76;20439;-91
2023/04/08 07:55:00;;;;;;;;;;;9.92;4.40;;;;;;2669963;76;20464;-90
2023/04/08 07:58:39;;;;;;;;;;;9.76;3.83;;;;;;2672078;76;20424;-91
2023/04/08 08:02:10;;;;;;;;;;;9.54;3.53;;;;;;2671303;76;20493;-90
2023/04/08 08:05:43;;;;;;;;;;;9.32;3.76;;;;;;2672133;76;20469;-92
2023/04/08 08:09:10;;;;;;;;;;;9.27;3.79;;;;;;2671469;76;20442;-91
2023/04/08 08:12:47;;;;;;;;;;;8.51;3.44;;;;;;2671889;76;20970;-92
2023/04/08 08:16:15;;;;;;;;;;;8.36;5.19;;;;;;2670750;76;20964;-92
2023/04/08 08:19:46;;;;;;;;;;;8.27;6.31;;;;;;2671873;76;20340;-92
2023/04/08 08:23:15;;;;;;;;;;;8.01;5.02;;;;;;2671825;76;21043;-93
2023/04/08 08:27:03;;;;;;;;;;;7.46;4.31;;;;;;2673693;76;20337;-93
2023/04/08 08:30:19;;;;;;;;;;;7.69;5.15;;;;;;2671906;76;20297;-93
2023/04/08 08:33:47;;;;;;;;;;;8.29;4.93;;;;;;2672795;76;20345;-92
2023/04/08 08:37:15;;;;;;;;;;;8.32;2.46;;;;;;2672153;76;20456;-92
2023/04/08 08:40:46;;;;;;;;;;;8.74;1.77;;;;;;2671892;76;20431;-92
2023/04/08 08:44:14;;;;;;;;;;;8.51;1.74;;;;;;2672463;76;20459;-92
2023/04/08 08:47:45;;;;;;;;;;;7.94;2.29;;;;;;2672145;76;20428;-92
2023/04/08 08:51:14;;;;;;;;;;;7.81;3.18;;;;;;2672153;76;20461;-92
2023/04/08 08:54:42;;;;;;;;;;;7.48;4.59;;;;;;2672214;76;20457;-92
2023/04/08 08:58:15;;;;;;;;;;;7.46;5.22;;;;;;2672465;76;20490;-92
2023/04/08 09:01:44;;;;;;;;;;;7.45;4.70;;;;;;2672353;76;20353;-92
2023/04/08 09:05:12;;;;;;;;;;;7.54;4.68;;;;;;2672716;76;20359;-92
2023/04/08 09:08:48;;;;;;;;;;;8.14;4.56;;;;;;2671946;76;20320;-92
2023/04/08 09:12:18;;;;;;;;;;;8.28;2.83;;;;;;2672479;76;20313;-92
2023/04/08 09:15:47;;;;;;;;;;;8.52;2.57;;;;;;2673394;76;21241;-91
2023/04/08 09:19:15;;;;;;;;;;;8.29;1.52;;;;;;2673497;76;20321;-92
2023/04/08 09:22:43;;;;;;;;;;;8.36;1.65;;;;;;2673315;76;20341;-92
2023/04/08 09:26:11;;;;;;;;;;;8.35;1.59;;;;;;2673348;76;20430;-92
2023/04/08 09:29:39;;;;;;;;;;;8.19;1.51;;;;;;2673272;76;20770;-92
2023/04/08 09:33:08;;;;;;;;;;;8.23;1.11;;;;;;2673213;76;20437;-91
2023/04/08 09:36:36;;;;;;;;;;;8.44;0.68;;;;;;2673614;76;20457;-92
2023/04/08 09:40:04;;;;;;;;;;;8.73;0.86;;;;;;2673211;76;20430;-92
2023/04/08 09:43:33;;;;;;;;;;;9.00;-0.09;;;;;;2672744;76;20417;-93
2023/04/08 09:47:01;;;;;;;;;;;9.18;-0.39;;;;;;2672586;76;20407;-93
2023/04/08 09:50:30;;;;;;;;;;;9.56;-1.35;;;;;;2672915;76;20381;-92
2023/04/08 09:53:58;;;;;;;;;;;9.55;-1.53;;;;;;2672514;76;20300;-92
2023/04/08 09:57:27;;;;;;;;;;;9.94;-0.96;;;;;;2672471;76;20536;-92
2023/04/08 10:00:55;;;;;;;;;;;9.37;-1.06;;;;;;2673178;76;20890;-92
2023/04/08 10:04:23;;;;;;;;;;;9.36;-0.29;;;;;;2671785;76;20684;-91
2023/04/08 10:07:51;;;;;;;;;;;8.96;-0.52;;;;;;2672743;76;20453;-92
2023/04/08 10:11:20;;;;;;;;;;;8.87;-0.19;;;;;;2672515;76;20465;-92
2023/04/08 10:14:48;;;;;;;;;;;8.58;1.57;;;;;;2671551;76;20421;-92
2023/04/08 10:18:24;;;;;;;;;;;8.13;2.41;;;;;;2672914;76;20428;-91
2023/04/08 10:21:49;;;;;;;;;;;8.29;2.64;;;;;;2672820;76;20331;-92
2023/04/08 10:25:17;;;;;;;;;;;8.53;2.32;;;;;;2672874;76;20418;-92
2023/04/08 10:28:45;;;;;;;;;;;8.60;1.60;;;;;;2672357;76;20302;-92
2023/04/08 10:32:13;;;;;;;;;;;8.27;2.16;;;;;;2672881;76;20298;-93
2023/04/08 10:35:41;;;;;;;;;;;8.34;3.15;;;;;;2673020;76;20353;-92
2023/04/08 10:39:09;;;;;;;;;;;9.26;2.80;;;;;;2673307;76;20308;-92
2023/04/08 10:42:37;;;;;;;;;;;9.38;1.64;;;;;;2672667;76;20452;-92
2023/04/08 10:46:06;;;;;;;;;;;9.65;1.05;;;;;;2672494;76;20773;-93
2023/04/08 10:49:34;;;;;;;;;;;9.52;1.07;;;;;;2672579;76;20304;-92
2023/04/08 10:53:02;;;;;;;;;;;9.31;2.28;;;;;;2672858;76;20480;-92
2023/04/08 10:56:30;;;;;;;;;;;9.44;2.09;;;;;;2672883;76;20323;-92
2023/04/08 10:59:58;;;;;;;;;;;9.77;2.45;;;;;;2672236;76;20444;-92
2023/04/08 11:03:26;;;;;;;;;;;10.08;1.38;;;;;;2672279;76;20449;-91
2023/04/08 11:06:55;;;;;;;;;;;9.11;1.16;;;;;;2673153;76;20311;-92
2023/04/08 11:10:23;;;;;;;;;;;8.92;2.06;;;;;;2672869;76;20329;-92
2023/04/08 11:13:51;;;;;;;;;;;8.18;3.35;;;;;;2672240;76;20470;-92
2023/04/08 11:17:19;;;;;;;;;;;8.01;5.56;;;;;;2672599;76;20315;-92
2023/04/08 11:20:47;;;;;;;;;;;8.02;4.23;;;;;;2673129;76;20436;-90
2023/04/08 11:24:15;;;;;;;;;;;7.91;3.61;;;;;;2672794;76;20315;-91
2023/04/08 11:27:43;;;;;;;;;;;7.94;4.26;;;;;;2672793;76;20424;-91
2023/04/08 11:31:12;;;;;;;;;;;7.87;3.44;;;;;;2672903;76;20473;-91
2023/04/08 11:34:40;;;;;;;;;;;7.90;3.45;;;;;;2673225;76;20348;-91
2023/04/08 11:38:08;;;;;;;;;;;7.91;3.22;;;;;;2672666;76;20329;-91
2023/04/08 11:41:38;;;;;;;;;;;7.91;3.30;;;;;;2672747;76;20504;-92
2023/04/08 11:45:06;;;;;;;;;;;7.87;3.74;;;;;;2673385;76;20953;-91
2023/04/08 11:48:35;;;;;;;;;;;7.56;4.21;;;;;;2672991;76;20410;-92
2023/04/08 11:52:03;;;;;;;;;;;7.18;5.07;;;;;;2673364;76;20449;-92
2023/04/08 11:55:31;;;;;;;;;;;7.39;5.86;;;;;;2672938;76;20416;-91
2023/04/08 11:58:59;;;;;;;;;;;7.63;5.18;;;;;;2673405;76;20420;-91
2023/04/08 12:02:33;;;;;;;;;;;7.70;4.70;;;;;;2672123;76;20444;-90
2023/04/08 12:05:58;;;;;;;;;;;7.33;5.85;;;;;;2672798;76;20642;-91
2023/04/08 12:09:29;;;;;;;;;;;7.55;6.12;;;;;;2672460;76;20888;-90
2023/04/08 12:12:58;;;;;;;;;;;7.82;5.65;;;;;;2672860;75;20441;-90
2023/04/08 12:16:26;;;;;;;;;;;7.91;5.22;;;;;;2672349;76;20309;-91
2023/04/08 12:19:54;;;;;;;;;;;7.81;4.64;;;;;;2672704;76;20408;-90
2023/04/08 12:23:22;;;;;;;;;;;7.79;5.26;;;;;;2672432;76;20461;-91
2023/04/08 12:26:50;;;;;;;;;;;7.82;5.49;;;;;;2672858;76;20323;-91
2023/04/08 12:30:18;;;;;;;;;;;7.82;5.44;;;;;;2672501;76;20433;-91
2023/04/08 12:33:46;;;;;;;;;;;8.02;5.33;;;;;;2672821;76;20298;-91
2023/04/08 12:37:15;;;;;;;;;;;7.96;5.25;;;;;;2673260;76;20321;-91
2023/04/08 12:40:43;;;;;;;;;;;7.64;5.51;;;;;;2672558;76;21029;-92
2023/04/08 12:44:11;;;;;;;;;;;7.46;6.55;;;;;;2672676;76;20448;-89
2023/04/08 12:47:39;;;;;;;;;;;7.60;6.63;;;;;;2672782;76;20960;-91
2023/04/08 12:51:09;;;;;;;;;;;7.61;6.37;;;;;;2672828;76;20451;-91
2023/04/08 12:54:37;;;;;;;;;;;7.45;6.99;;;;;;2673503;76;20444;-91
2023/04/08 12:58:05;;;;;;;;;;;7.62;6.89;;;;;;2672209;76;20438;-92
2023/04/08 13:01:33;;;;;;;;;;;7.60;6.82;;;;;;2672893;76;20300;-91
2023/04/08 13:05:02;;;;;;;;;;;7.62;7.18;;;;;;2672532;76;20432;-90
2023/04/08 13:08:37;;;;;;;;;;;7.63;7.19;;;;;;2672644;76;20332;-91
2023/04/08 13:12:02;;;;;;;;;;;7.50;7.23;;;;;;2671776;76;20311;-91
2023/04/08 13:15:30;;;;;;;;;;;7.52;7.34;;;;;;2672735;76;20434;-89
2023/04/08 13:18:58;;;;;;;;;;;7.44;7.40;;;;;;2672831;76;20411;-91
2023/04/08 13:22:26;;;;;;;;;;;7.42;8.24;;;;;;2671715;76;20412;-91
2023/04/08 13:25:55;;;;;;;;;;;7.81;7.80;;;;;;2672403;76;20322;-91
2023/04/08 13:29:23;;;;;;;;;;;8.13;7.30;;;;;;2672235;76;20417;-91
2023/04/08 13:32:51;;;;;;;;;;;8.23;6.68;;;;;;2672765;76;20454;-92
2023/04/08 13:36:20;;;;;;;;;;;8.23;6.73;;;;;;2672790;76;20428;-91
2023/04/08 13:39:48;;;;;;;;;;;8.76;6.08;;;;;;2672335;76;20902;-91
2023/04/08 13:43:16;;;;;;;;;;;8.73;4.87;;;;;;2672655;76;20882;-91
2023/04/08 13:46:44;;;;;;;;;;;8.83;4.41;;;;;;2672811;76;20949;-90
2023/04/08 13:50:13;;;;;;;;;;;8.89;4.30;;;;;;2672635;76;20408;-91
2023/04/08 13:53:41;;;;;;;;;;;8.98;4.42;;;;;;2673144;76;20398;-91
2023/04/08 13:57:09;;;;;;;;;;;8.95;4.32;;;;;;2672293;76;20453;-91
2023/04/08 14:00:39;;;;;;;;;;;8.87;4.33;;;;;;2672111;76;20839;-91
2023/04/08 14:04:07;;;;;;;;;;;8.52;3.96;;;;;;2672586;76;20419;-91
2023/04/08 14:07:44;;;;;;;;;;;8.48;4.36;;;;;;2671915;76;20444;-91
2023/04/08 14:11:13;;;;;;;;;;;8.11;4.71;;;;;;2672371;76;20455;-90
2023/04/08 14:14:41;;;;;;;;;;;8.24;4.94;;;;;;2671674;76;20409;-91
2023/04/08 14:18:09;;;;;;;;;;;8.04;4.60;;;;;;2671991;76;20458;-91
2023/04/08 14:21:37;;;;;;;;;;;8.17;5.02;;;;;;2672145;76;20417;-90
2023/04/08 14:25:06;;;;;;;;;;;8.20;4.78;;;;;;2672503;76;20446;-90
2023/04/08 14:28:34;;;;;;;;;;;7.99;4.73;;;;;;2672163;76;20444;-91
2023/04/08 14:32:02;;;;;;;;;;;7.82;5.70;;;;;;2672421;76;20622;-91
2023/04/08 14:35:30;;;;;;;;;;;7.93;5.33;;;;;;2671859;76;20916;-91
2023/04/08 14:38:58;;;;;;;;;;;7.70;5.41;;;;;;2673356;76;20996;-90
2023/04/08 14:42:26;;;;;;;;;;;7.85;5.84;;;;;;2672802;76;20887;-90
2023/04/08 14:45:54;;;;;;;;;;;7.92;5.59;;;;;;2672687;76;20908;-91
2023/04/08 14:49:22;;;;;;;;;;;7.89;5.47;;;;;;2673223;76;20899;-90
2023/04/08 14:52:50;;;;;;;;;;;7.98;5.67;;;;;;2672502;76;20923;-91
2023/04/08 14:56:18;;;;;;;;;;;7.98;5.65;;;;;;2673034;76;20446;-90
2023/04/08 14:59:47;;;;;;;;;;;8.04;5.60;;;;;;2673004;76;20427;-91
2023/04/08 15:03:21;;;;;;;;;;;7.99;5.43;;;;;;2672532;76;20437;-91
2023/04/08 15:06:45;;;;;;;;;;;7.81;5.99;;;;;;2672327;76;20443;-91
2023/04/08 15:10:13;;;;;;;;;;;7.78;6.14;;;;;;2672779;76;20538;-90
2023/04/08 15:13:41;;;;;;;;;;;7.76;6.20;;;;;;2672448;76;20959;-91
2023/04/08 15:17:09;;;;;;;;;;;7.81;6.17;;;;;;2672663;76;20465;-90
2023/04/08 15:20:37;;;;;;;;;;;7.79;6.20;;;;;;2673013;76;20429;-92
2023/04/08 15:24:05;;;;;;;;;;;7.72;6.56;;;;;;2672987;76;20429;-91
2023/04/08 15:27:33;;;;;;;;;;;7.76;6.84;;;;;;2672790;76;20419;-91
2023/04/08 15:31:02;;;;;;;;;;;7.74;6.85;;;;;;2672913;76;20420;-91
2023/04/08 15:34:30;;;;;;;;;;;7.71;6.89;;;;;;2673220;76;20413;-91
2023/04/08 15:37:59;;;;;;;;;;;7.67;7.15;;;;;;2672757;76;20431;-91
2023/04/08 15:41:27;;;;;;;;;;;7.70;7.24;;;;;;2672484;76;20856;-90
2023/04/08 15:44:55;;;;;;;;;;;7.73;7.44;;;;;;2672940;76;20350;-90
2023/04/08 15:48:23;;;;;;;;;;;7.70;7.81;;;;;;2672917;76;20313;-91
2023/04/08 15:51:52;;;;;;;;;;;7.74;7.70;;;;;;2672162;76;20462;-91
2023/04/08 15:55:21;;;;;;;;;;;7.73;8.00;;;;;;2672981;76;20777;-91
2023/04/08 15:58:49;;;;;;;;;;;7.82;7.97;;;;;;2672613;76;20445;-91
2023/04/08 16:02:17;;;;;;;;;;;7.76;8.18;;;;;;2672705;76;20986;-92
2023/04/08 16:05:45;;;;;;;;;;;7.77;8.37;;;;;;2672840;76;20957;-90
2023/04/08 16:09:13;;;;;;;;;;;7.81;8.27;;;;;;2672719;76;20416;-91
2023/04/08 16:12:41;;;;;;;;;;;7.83;8.17;;;;;;2672431;76;20415;-90
2023/04/08 16:16:11;;;;;;;;;;;7.77;8.19;;;;;;2672766;76;20730;-92
2023/04/08 16:19:42;;;;;;;;;;;7.70;8.39;;;;;;2673086;76;20771;-91
2023/04/08 16:23:10;;;;;;;;;;;7.76;8.68;;;;;;2672959;76;20431;-91
2023/04/08 16:26:39;;;;;;;;;;;7.81;8.47;;;;;;2673133;76;20562;-91
2023/04/08 16:30:07;;;;;;;;;;;7.90;8.38;;;;;;2672758;76;20299;-92
2023/04/08 16:33:36;;;;;;;;;;;7.79;8.41;;;;;;2672440;76;20434;-90
2023/04/08 16:37:04;;;;;;;;;;;7.87;8.63;;;;;;2672939;76;20319;-91
2023/04/08 16:40:32;;;;;;;;;;;7.90;8.58;;;;;;2673204;76;20321;-91
2023/04/08 16:44:00;;;;;;;;;;;8.00;8.61;;;;;;2672390;76;20942;-91
2023/04/08 16:47:28;;;;;;;;;;;8.02;8.48;;;;;;2672547;76;20528;-91
2023/04/08 16:50:57;;;;;;;;;;;8.00;8.39;;;;;;2672526;76;20869;-91
2023/04/08 16:54:25;;;;;;;;;;;7.94;8.51;;;;;;2672151;76;20904;-90
2023/04/08 16:57:53;;;;;;;;;;;7.84;9.02;;;;;;2672436;76;20430;-91
2023/04/08 17:01:21;;;;;;;;;;;7.75;9.44;;;;;;2672911;76;20403;-89
2023/04/08 17:04:52;;;;;;;;;;;7.63;10.03;;;;;;2673090;76;20929;-91
2023/04/08 17:08:20;;;;;;;;;;;7.59;10.22;;;;;;2672697;76;20455;-91
2023/04/08 17:11:48;;;;;;;;;;;7.45;10.85;;;;;;2672551;76;20435;-91
2023/04/08 17:15:16;;;;;;;;;;;7.24;11.42;;;;;;2673105;76;20446;-92
2023/04/08 17:18:45;;;;;;;;;;;7.29;11.62;;;;;;2673088;76;20470;-91
2023/04/08 17:22:13;;;;;;;;;;;7.22;11.74;;;;;;2673160;76;20538;-90
2023/04/08 17:25:41;;;;;;;;;;;7.20;11.97;;;;;;2672379;76;20944;-91
2023/04/08 17:29:09;;;;;;;;;;;6.95;12.67;;;;;;2672374;76;20439;-91
2023/04/08 17:32:37;;;;;;;;;;;6.76;14.81;;;;;;2672585;76;20427;-90
2023/04/08 17:36:05;;;;;;;;;;;6.91;15.09;;;;;;2672730;76;20434;-91
2023/04/08 17:39:39;;;;;;;;;;;7.03;14.13;;;;;;2672482;76;20497;-91
2023/04/08 17:43:03;;;;;;;;;;;6.97;14.46;;;;;;2671984;76;20444;-90
2023/04/08 17:46:32;;;;;;;;;;;6.87;15.18;;;;;;2672853;76;20438;-91
2023/04/08 17:50:00;;;;;;;;;;;6.71;16.19;;;;;;2673135;76;20448;-91
2023/04/08 17:53:28;;;;;;;;;;;6.74;16.51;;;;;;2672920;76;20441;-92
2023/04/08 17:56:56;;;;;;;;;;;6.74;16.93;;;;;;2672636;76;20927;-90
2023/04/08 18:00:25;;;;;;;;;;;6.86;16.61;;;;;;2672894;76;20413;-91
2023/04/08 18:03:53;;;;;;;;;;;6.88;16.63;;;;;;2672942;76;20364;-91
2023/04/08 18:07:21;;;;;;;;;;;6.82;16.83;;;;;;2673182;76;20707;-91
2023/04/08 18:10:51;;;;;;;;;;;6.94;16.64;;;;;;2672270;76;20357;-91
2023/04/08 18:14:20;;;;;;;;;;;6.89;16.82;;;;;;2672500;76;20303;-92
2023/04/08 18:17:48;;;;;;;;;;;6.80;17.30;;;;;;2672294;76;20349;-91
2023/04/08 18:21:20;;;;;;;;;;;6.84;17.19;;;;;;2672530;76;20302;-91
2023/04/08 18:24:49;;;;;;;;;;;6.74;17.50;;;;;;2671596;76;20940;-89
2023/04/08 18:28:17;;;;;;;;;;;6.71;17.71;;;;;;2672527;76;20781;-90
2023/04/08 18:31:45;;;;;;;;;;;6.71;17.61;;;;;;2672241;76;20544;-91
2023/04/08 18:35:16;;;;;;;;;;;6.65;18.01;;;;;;2671835;76;20435;-90
2023/04/08 18:38:44;;;;;;;;;;;6.74;17.70;;;;;;2672380;76;20928;-91
2023/04/08 18:42:12;;;;;;;;;;;6.76;17.58;;;;;;2671848;76;20893;-91
2023/04/08 18:45:40;;;;;;;;;;;6.82;17.13;;;;;;2672691;76;20506;-91
2023/04/08 18:49:08;;;;;;;;;;;6.84;17.09;;;;;;2672836;76;20433;-91
2023/04/08 18:52:37;;;;;;;;;;;6.81;17.25;;;;;;2672072;76;20472;-90
2023/04/08 18:56:06;;;;;;;;;;;6.81;17.54;;;;;;2672170;76;20320;-91
2023/04/08 18:59:38;;;;;;;;;;;6.87;17.35;;;;;;2672657;76;20313;-91
2023/04/08 19:03:06;;;;;;;;;;;6.89;17.22;;;;;;2673676;76;20338;-92
2023/04/08 19:06:36;;;;;;;;;;;6.79;17.61;;;;;;2672840;76;20435;-92
2023/04/08 19:10:04;;;;;;;;;;;6.79;17.96;;;;;;2671920;76;20308;-91
2023/04/08 19:13:32;;;;;;;;;;;6.74;18.08;;;;;;2672999;76;20317;-92
2023/04/08 19:17:00;;;;;;;;;;;6.82;17.90;;;;;;2673286;76;20320;-91
2023/04/08 19:20:28;;;;;;;;;;;6.72;18.17;;;;;;2673003;76;20354;-91
2023/04/08 19:23:56;;;;;;;;;;;6.84;17.76;;;;;;2672824;76;20322;-92
2023/04/08 19:27:25;;;;;;;;;;;6.84;17.31;;;;;;2672332;76;20458;-91
2023/04/08 19:30:53;;;;;;;;;;;6.80;17.02;;;;;;2673165;76;20920;-91
2023/04/08 19:34:22;;;;;;;;;;;6.72;17.09;;;;;;2673104;76;20907;-91
2023/04/08 19:37:50;;;;;;;;;;;6.75;16.92;;;;;;2673112;76;20938;-91
2023/04/08 19:41:18;;;;;;;;;;;6.65;17.21;;;;;;2672778;76;20449;-91
2023/04/08 19:44:49;;;;;;;;;;;6.74;16.97;;;;;;2672944;76;20306;-91
2023/04/08 19:48:19;;;;;;;;;;;6.78;16.87;;;;;;2672989;76;20943;-91
2023/04/08 19:51:48;;;;;;;;;;;6.79;16.77;;;;;;2673018;76;20333;-91
2023/04/08 19:55:16;;;;;;;;;;;6.75;16.91;;;;;;2672393;76;20309;-91
2023/04/08 19:58:44;;;;;;;;;;;6.84;16.96;;;;;;2672348;76;20421;-91
2023/04/08 20:02:12;;;;;;;;;;;6.91;16.79;;;;;;2672655;76;20444;-91
2023/04/08 20:05:40;;;;;;;;;;;7.00;16.61;;;;;;2672887;76;20423;-91
2023/04/08 20:09:08;;;;;;;;;;;7.02;16.51;;;;;;2672288;76;20930;-91
2023/04/08 20:12:36;;;;;;;;;;;6.93;16.77;;;;;;2672548;76;20778;-91
2023/04/08 20:16:04;;;;;;;;;;;7.00;16.74;;;;;;2673037;76;20778;-92
2023/04/08 20:19:32;;;;;;;;;;;7.02;16.60;;;;;;2672891;76;20862;-91
2023/04/08 20:23:00;;;;;;;;;;;6.96;16.86;;;;;;2672673;76;20777;-90
2023/04/08 20:26:29;;;;;;;;;;;6.93;16.84;;;;;;2673263;76;20783;-91
2023/04/08 20:29:57;;;;;;;;;;;6.95;16.80;;;;;;2673144;76;20350;-91
2023/04/08 20:33:25;;;;;;;;;;;6.96;16.64;;;;;;2672842;76;20682;-92
2023/04/08 20:36:55;;;;;;;;;;;6.95;16.40;;;;;;2672871;76;20874;-91
2023/04/08 20:40:23;;;;;;;;;;;6.88;16.17;;;;;;2672587;76;20410;-91
2023/04/08 20:43:51;;;;;;;;;;;6.82;16.45;;;;;;2672407;76;20420;-91
2023/04/08 20:47:19;;;;;;;;;;;6.85;16.58;;;;;;2672818;76;20398;-91
2023/04/08 20:50:47;;;;;;;;;;;6.87;16.42;;;;;;2671988;76;20797;-91
2023/04/08 20:54:15;;;;;;;;;;;6.89;16.42;;;;;;2672614;76;20346;-91